createdAt,value
2022-11-16T00:00:33.731Z,9.56
2022-11-16T00:01:33.753Z,9.56
2022-11-16T00:02:33.771Z,9.56
2022-11-16T00:03:33.931Z,9.56
2022-11-16T00:04:33.686Z,9.58
2022-11-16T00:05:33.684Z,9.61
2022-11-16T00:06:33.661Z,9.61
2022-11-16T00:07:33.660Z,9.61
2022-11-16T00:08:34.198Z,9.64
2022-11-16T00:09:33.619Z,9.62
2022-11-16T00:10:33.601Z,9.62
2022-11-16T00:11:33.587Z,9.61
2022-11-16T00:12:33.578Z,9.61
2022-11-16T00:13:33.557Z,9.62
2022-11-16T00:14:33.789Z,9.61
2022-11-16T00:15:33.535Z,9.62
2022-11-16T00:16:33.525Z,9.62
2022-11-16T00:17:33.507Z,9.62
2022-11-16T00:18:33.697Z,9.61
2022-11-16T00:19:33.727Z,9.62
2022-11-16T00:20:33.473Z,9.62
2022-11-16T00:21:33.465Z,9.62
2022-11-16T00:22:33.443Z,9.61
2022-11-16T00:23:33.430Z,9.61
2022-11-16T00:24:33.685Z,9.62
2022-11-16T00:25:33.410Z,9.62
2022-11-16T00:26:33.414Z,9.59
2022-11-16T00:27:33.401Z,9.61
2022-11-16T00:28:33.701Z,9.59
2022-11-16T00:29:33.611Z,9.59
2022-11-16T00:30:33.372Z,9.58
2022-11-16T00:31:33.329Z,9.59
2022-11-16T00:32:33.317Z,9.59
2022-11-16T00:33:33.302Z,9.59
2022-11-16T00:34:33.530Z,9.59
2022-11-16T00:35:33.276Z,9.59
2022-11-16T00:36:33.265Z,9.58
2022-11-16T00:37:33.247Z,9.58
2022-11-16T00:38:33.502Z,9.58
2022-11-16T00:39:33.463Z,9.56
2022-11-16T00:40:33.215Z,9.56
2022-11-16T00:41:33.210Z,9.56
2022-11-16T00:42:33.194Z,9.55
2022-11-16T00:43:33.182Z,9.55
2022-11-16T00:44:33.394Z,9.51
2022-11-16T00:45:33.146Z,9.51
2022-11-16T00:46:33.131Z,9.48
2022-11-16T00:47:33.135Z,9.50
2022-11-16T00:48:33.507Z,9.50
2022-11-16T00:49:33.339Z,9.48
2022-11-16T00:50:33.088Z,9.50
2022-11-16T00:51:33.087Z,9.48
2022-11-16T00:52:33.067Z,9.50
2022-11-16T00:53:33.043Z,9.50
2022-11-16T00:54:33.269Z,9.47
2022-11-16T00:55:33.015Z,9.48
2022-11-16T00:56:33.028Z,9.47
2022-11-16T00:57:32.995Z,9.47
2022-11-16T00:58:33.297Z,9.47
2022-11-16T00:59:33.194Z,9.46
2022-11-16T01:00:32.989Z,9.47
2022-11-16T01:01:32.979Z,9.46
2022-11-16T01:02:32.924Z,9.46
2022-11-16T01:03:33.152Z,9.46
2022-11-16T01:04:32.893Z,9.44
2022-11-16T01:05:32.901Z,9.44
2022-11-16T01:06:32.872Z,9.44
2022-11-16T01:07:32.940Z,9.41
2022-11-16T01:08:33.418Z,9.41
2022-11-16T01:09:32.834Z,9.41
2022-11-16T01:10:32.828Z,9.41
2022-11-16T01:11:32.810Z,9.43
2022-11-16T01:12:32.801Z,9.41
2022-11-16T01:13:33.031Z,9.41
2022-11-16T01:14:32.769Z,9.40
2022-11-16T01:15:39.862Z,9.40
2022-11-16T01:16:34.521Z,9.41
2022-11-16T01:17:34.490Z,9.43
2022-11-16T01:18:33.280Z,9.44
2022-11-16T01:19:32.708Z,9.43
2022-11-16T01:20:32.698Z,9.43
2022-11-16T01:21:32.756Z,9.44
2022-11-16T01:22:32.687Z,9.44
2022-11-16T01:23:32.886Z,9.41
2022-11-16T01:24:32.638Z,9.41
2022-11-16T01:25:32.625Z,9.41
2022-11-16T01:26:32.623Z,9.40
2022-11-16T01:27:35.156Z,9.41
2022-11-16T01:28:33.211Z,9.43
2022-11-16T01:29:32.577Z,9.41
2022-11-16T01:30:32.564Z,9.43
2022-11-16T01:31:32.575Z,9.44
2022-11-16T01:32:32.545Z,9.46
2022-11-16T01:33:32.761Z,9.46
2022-11-16T01:34:32.513Z,9.46
2022-11-16T01:35:32.508Z,9.47
2022-11-16T01:36:32.489Z,9.46
2022-11-16T01:37:32.471Z,9.47
2022-11-16T01:38:32.980Z,9.48
2022-11-16T01:39:32.447Z,9.48
2022-11-16T01:40:32.431Z,9.48
2022-11-16T01:41:32.419Z,9.50
2022-11-16T01:42:32.409Z,9.51
2022-11-16T01:43:32.633Z,9.51
2022-11-16T01:44:32.376Z,9.50
2022-11-16T01:45:33.116Z,9.48
2022-11-16T01:46:32.358Z,9.50
2022-11-16T01:47:32.340Z,9.51
2022-11-16T01:48:33.053Z,9.50
2022-11-16T01:49:32.324Z,9.50
2022-11-16T01:50:32.332Z,9.51
2022-11-16T01:51:32.342Z,9.50
2022-11-16T01:52:32.285Z,9.50
2022-11-16T01:53:32.506Z,9.51
2022-11-16T01:54:32.255Z,9.50
2022-11-16T01:55:32.290Z,9.48
2022-11-16T01:56:32.226Z,9.47
2022-11-16T01:57:32.219Z,9.47
2022-11-16T01:58:32.850Z,9.47
2022-11-16T01:59:32.194Z,9.47
2022-11-16T02:00:32.179Z,9.47
2022-11-16T02:01:32.204Z,9.46
2022-11-16T02:02:32.146Z,9.43
2022-11-16T02:03:33.235Z,9.44
2022-11-16T02:04:32.126Z,9.43
2022-11-16T02:05:32.109Z,9.43
2022-11-16T02:06:32.108Z,9.43
2022-11-16T02:07:32.918Z,9.44
2022-11-16T02:08:32.863Z,9.43
2022-11-16T02:09:32.064Z,9.44
2022-11-16T02:10:32.089Z,9.43
2022-11-16T02:11:32.035Z,9.43
2022-11-16T02:12:32.071Z,9.44
2022-11-16T02:13:32.242Z,9.46
2022-11-16T02:14:31.995Z,9.46
2022-11-16T02:15:31.988Z,9.46
2022-11-16T02:16:31.970Z,9.48
2022-11-16T02:17:31.981Z,9.47
2022-11-16T02:18:32.624Z,9.48
2022-11-16T02:19:31.950Z,9.47
2022-11-16T02:20:31.919Z,9.48
2022-11-16T02:21:31.920Z,9.47
2022-11-16T02:22:31.899Z,9.47
2022-11-16T02:23:32.118Z,9.46
2022-11-16T02:24:31.860Z,9.46
2022-11-16T02:25:31.850Z,9.47
2022-11-16T02:26:31.839Z,9.47
2022-11-16T02:27:31.819Z,9.47
2022-11-16T02:28:32.156Z,9.46
2022-11-16T02:29:32.307Z,9.40
2022-11-16T02:30:31.784Z,9.37
2022-11-16T02:31:31.775Z,9.39
2022-11-16T02:32:31.753Z,9.37
2022-11-16T02:33:31.993Z,9.39
2022-11-16T02:34:31.808Z,9.36
2022-11-16T02:35:31.725Z,9.34
2022-11-16T02:36:31.722Z,9.34
2022-11-16T02:37:31.724Z,9.34
2022-11-16T02:38:32.144Z,9.32
2022-11-16T02:39:31.992Z,9.31
2022-11-16T02:40:31.661Z,9.32
2022-11-16T02:41:31.687Z,9.32
2022-11-16T02:42:31.630Z,9.32
2022-11-16T02:43:32.369Z,9.32
2022-11-16T02:44:31.846Z,9.34
2022-11-16T02:45:31.593Z,9.34
2022-11-16T02:46:31.618Z,9.37
2022-11-16T02:47:31.558Z,9.37
2022-11-16T02:48:31.971Z,9.40
2022-11-16T02:49:31.772Z,9.39
2022-11-16T02:50:31.521Z,9.40
2022-11-16T02:51:31.513Z,9.41
2022-11-16T02:52:31.493Z,9.43
2022-11-16T02:53:31.485Z,9.43
2022-11-16T02:54:31.703Z,9.44
2022-11-16T02:55:31.461Z,9.44
2022-11-16T02:56:31.463Z,9.46
2022-11-16T02:57:31.458Z,9.47
2022-11-16T02:58:31.732Z,9.50
2022-11-16T02:59:31.652Z,9.51
2022-11-16T03:00:31.419Z,9.54
2022-11-16T03:01:31.570Z,9.56
2022-11-16T03:02:31.417Z,9.58
2022-11-16T03:03:31.357Z,9.65
2022-11-16T03:04:31.596Z,9.69
2022-11-16T03:05:31.336Z,9.73
2022-11-16T03:06:31.315Z,9.74
2022-11-16T03:07:31.355Z,9.76
2022-11-16T03:08:31.681Z,9.77
2022-11-16T03:09:31.530Z,9.76
2022-11-16T03:10:31.264Z,9.76
2022-11-16T03:11:31.252Z,9.76
2022-11-16T03:12:31.969Z,9.77
2022-11-16T03:13:31.467Z,9.77
2022-11-16T03:14:31.210Z,9.77
2022-11-16T03:15:31.200Z,9.76
2022-11-16T03:16:31.190Z,9.76
2022-11-16T03:17:31.172Z,9.74
2022-11-16T03:18:31.477Z,9.77
2022-11-16T03:19:31.385Z,9.77
2022-11-16T03:20:31.139Z,9.77
2022-11-16T03:21:31.118Z,9.80
2022-11-16T03:22:31.120Z,9.80
2022-11-16T03:23:31.096Z,9.80
2022-11-16T03:24:31.376Z,9.80
2022-11-16T03:25:31.124Z,9.82
2022-11-16T03:26:31.058Z,9.80
2022-11-16T03:27:31.140Z,9.79
2022-11-16T03:28:31.332Z,9.82
2022-11-16T03:29:31.254Z,9.80
2022-11-16T03:30:31.045Z,9.80
2022-11-16T03:31:30.993Z,9.79
2022-11-16T03:32:31.047Z,9.80
2022-11-16T03:33:30.964Z,9.83
2022-11-16T03:34:31.223Z,9.82
2022-11-16T03:35:30.939Z,9.83
2022-11-16T03:36:30.950Z,9.83
2022-11-16T03:37:30.915Z,9.83
2022-11-16T03:38:31.037Z,9.83
2022-11-16T03:39:31.120Z,9.84
2022-11-16T03:40:30.869Z,9.84
2022-11-16T03:41:30.887Z,9.86
2022-11-16T03:42:30.846Z,9.87
2022-11-16T03:43:30.840Z,9.92
2022-11-16T03:44:31.101Z,9.94
2022-11-16T03:45:30.806Z,9.95
2022-11-16T03:46:30.806Z,9.97
2022-11-16T03:47:30.785Z,9.99
2022-11-16T03:48:31.105Z,10.02
2022-11-16T03:49:31.001Z,10.04
2022-11-16T03:50:30.751Z,10.02
2022-11-16T03:51:30.741Z,10.04
2022-11-16T03:52:30.711Z,10.05
2022-11-16T03:53:30.712Z,10.04
2022-11-16T03:54:30.932Z,10.07
2022-11-16T03:55:30.682Z,10.05
2022-11-16T03:56:30.662Z,10.04
2022-11-16T03:57:30.651Z,10.04
2022-11-16T03:58:30.777Z,10.02
2022-11-16T03:59:30.894Z,10.02
2022-11-16T04:00:30.665Z,10.02
2022-11-16T04:01:30.660Z,10.02
2022-11-16T04:02:30.600Z,10.02
2022-11-16T04:03:30.621Z,10.02
2022-11-16T04:04:31.379Z,10.02
2022-11-16T04:05:30.545Z,10.04
2022-11-16T04:06:30.527Z,10.04
2022-11-16T04:07:30.619Z,10.04
2022-11-16T04:08:30.602Z,10.02
2022-11-16T04:09:30.780Z,10.05
2022-11-16T04:10:30.478Z,10.04
2022-11-16T04:11:30.464Z,10.05
2022-11-16T04:12:30.464Z,10.04
2022-11-16T04:13:30.445Z,10.05
2022-11-16T04:14:30.662Z,10.05
2022-11-16T04:15:30.432Z,10.05
2022-11-16T04:16:30.431Z,10.05
2022-11-16T04:17:30.391Z,10.02
2022-11-16T04:18:30.406Z,10.01
2022-11-16T04:19:30.615Z,9.99
2022-11-16T04:20:30.360Z,9.99
2022-11-16T04:21:30.370Z,9.99
2022-11-16T04:22:30.328Z,9.98
2022-11-16T04:23:30.338Z,9.97
2022-11-16T04:24:30.538Z,9.98
2022-11-16T04:25:30.298Z,9.99
2022-11-16T04:26:30.284Z,9.98
2022-11-16T04:27:31.903Z,9.98
2022-11-16T04:28:30.518Z,9.97
2022-11-16T04:29:31.182Z,9.95
2022-11-16T04:30:30.225Z,9.95
2022-11-16T04:31:30.212Z,9.95
2022-11-16T04:32:30.207Z,9.94
2022-11-16T04:33:30.487Z,9.94
2022-11-16T04:34:31.131Z,9.92
2022-11-16T04:35:30.177Z,9.91
2022-11-16T04:36:30.149Z,9.91
2022-11-16T04:37:30.126Z,9.89
2022-11-16T04:38:30.121Z,9.87
2022-11-16T04:39:30.474Z,9.87
2022-11-16T04:40:30.113Z,9.87
2022-11-16T04:41:30.082Z,9.83
2022-11-16T04:42:30.068Z,9.83
2022-11-16T04:43:30.114Z,9.84
2022-11-16T04:44:30.488Z,9.82
2022-11-16T04:45:30.060Z,9.82
2022-11-16T04:46:30.016Z,9.82
2022-11-16T04:47:29.998Z,9.80
2022-11-16T04:48:30.017Z,9.79
2022-11-16T04:49:30.453Z,9.79
2022-11-16T04:50:29.973Z,9.79
2022-11-16T04:51:29.944Z,9.77
2022-11-16T04:52:29.937Z,9.76
2022-11-16T04:53:29.917Z,9.76
2022-11-16T04:54:30.166Z,9.79
2022-11-16T04:55:29.894Z,9.76
2022-11-16T04:56:29.904Z,9.76
2022-11-16T04:57:29.917Z,9.76
2022-11-16T04:58:29.869Z,9.74
2022-11-16T04:59:31.036Z,9.73
2022-11-16T05:00:29.873Z,9.72
2022-11-16T05:01:29.875Z,9.73
2022-11-16T05:02:29.817Z,9.73
2022-11-16T05:03:29.833Z,9.73
2022-11-16T05:04:29.822Z,9.72
2022-11-16T05:05:29.798Z,9.73
2022-11-16T05:06:29.759Z,9.73
2022-11-16T05:07:29.789Z,9.72
2022-11-16T05:08:29.727Z,9.69
2022-11-16T05:09:29.949Z,9.72
2022-11-16T05:10:29.708Z,9.68
2022-11-16T05:11:29.688Z,9.68
2022-11-16T05:12:29.676Z,9.68
2022-11-16T05:13:29.675Z,9.69
2022-11-16T05:14:29.885Z,9.66
2022-11-16T05:15:29.637Z,9.65
2022-11-16T05:16:29.625Z,9.65
2022-11-16T05:17:29.617Z,9.65
2022-11-16T05:18:29.593Z,9.64
2022-11-16T05:19:29.821Z,9.62
2022-11-16T05:20:29.581Z,9.64
2022-11-16T05:21:29.560Z,9.62
2022-11-16T05:22:29.553Z,9.62
2022-11-16T05:23:29.533Z,9.64
2022-11-16T05:24:29.761Z,9.64
2022-11-16T05:25:35.272Z,9.62
2022-11-16T05:26:30.495Z,9.62
2022-11-16T05:27:29.491Z,9.61
2022-11-16T05:28:29.469Z,9.61
2022-11-16T05:29:29.747Z,9.62
2022-11-16T05:30:29.439Z,9.61
2022-11-16T05:31:29.497Z,9.61
2022-11-16T05:32:29.427Z,9.61
2022-11-16T05:33:29.399Z,9.58
2022-11-16T05:34:29.626Z,9.61
2022-11-16T05:35:29.378Z,9.61
2022-11-16T05:36:29.425Z,9.61
2022-11-16T05:37:29.353Z,9.62
2022-11-16T05:38:29.382Z,9.64
2022-11-16T05:39:29.681Z,9.59
2022-11-16T05:40:29.334Z,9.61
2022-11-16T05:41:29.366Z,9.58
2022-11-16T05:42:29.290Z,9.59
2022-11-16T05:43:29.270Z,9.58
2022-11-16T05:44:29.502Z,9.59
2022-11-16T05:45:29.248Z,9.59
2022-11-16T05:46:29.233Z,9.61
2022-11-16T05:47:29.230Z,9.61
2022-11-16T05:48:29.208Z,9.61
2022-11-16T05:49:29.428Z,9.59
2022-11-16T05:50:29.179Z,9.61
2022-11-16T05:51:29.202Z,9.59
2022-11-16T05:52:29.158Z,9.58
2022-11-16T05:53:29.155Z,9.58
2022-11-16T05:54:29.368Z,9.58
2022-11-16T05:55:29.183Z,9.56
2022-11-16T05:56:29.160Z,9.55
2022-11-16T05:57:29.086Z,9.54
2022-11-16T05:58:29.073Z,9.54
2022-11-16T05:59:29.296Z,9.51
2022-11-16T06:00:29.190Z,9.48
2022-11-16T06:01:29.046Z,9.48
2022-11-16T06:02:29.037Z,9.47
2022-11-16T06:03:29.055Z,9.47
2022-11-16T06:04:29.290Z,9.48
2022-11-16T06:05:28.980Z,9.47
2022-11-16T06:06:29.173Z,9.43
2022-11-16T06:07:28.992Z,9.43
2022-11-16T06:08:28.913Z,9.40
2022-11-16T06:09:29.125Z,9.40
2022-11-16T06:10:28.919Z,9.40
2022-11-16T06:11:34.342Z,9.40
2022-11-16T06:12:29.850Z,9.39
2022-11-16T06:13:28.829Z,9.41
2022-11-16T06:14:29.066Z,9.43
2022-11-16T06:15:28.798Z,9.41
2022-11-16T06:16:28.846Z,9.43
2022-11-16T06:17:28.835Z,9.44
2022-11-16T06:18:28.927Z,9.44
2022-11-16T06:19:32.344Z,9.46
2022-11-16T06:20:28.748Z,9.46
2022-11-16T06:21:28.734Z,9.44
2022-11-16T06:22:28.726Z,9.47
2022-11-16T06:23:28.703Z,9.48
2022-11-16T06:24:28.943Z,9.48
2022-11-16T06:25:28.764Z,9.50
2022-11-16T06:26:28.843Z,9.48
2022-11-16T06:27:28.721Z,9.50
2022-11-16T06:28:28.649Z,9.48
2022-11-16T06:29:28.858Z,9.54
2022-11-16T06:30:28.608Z,9.51
2022-11-16T06:31:28.680Z,9.50
2022-11-16T06:32:28.600Z,9.51
2022-11-16T06:33:33.404Z,9.48
2022-11-16T06:34:29.798Z,9.47
2022-11-16T06:35:28.577Z,9.44
2022-11-16T06:36:29.006Z,9.43
2022-11-16T06:37:28.515Z,9.43
2022-11-16T06:38:28.536Z,9.44
2022-11-16T06:39:28.858Z,9.46
2022-11-16T06:40:28.540Z,9.48
2022-11-16T06:41:28.462Z,9.50
2022-11-16T06:42:28.452Z,9.51
2022-11-16T06:43:28.482Z,9.54
2022-11-16T06:44:28.660Z,9.54
2022-11-16T06:45:28.417Z,9.55
2022-11-16T06:46:28.400Z,9.54
2022-11-16T06:47:29.145Z,9.55
2022-11-16T06:48:28.437Z,9.55
2022-11-16T06:49:28.612Z,9.56
2022-11-16T06:50:29.306Z,9.59
2022-11-16T06:51:28.410Z,9.58
2022-11-16T06:52:28.326Z,9.59
2022-11-16T06:53:29.602Z,9.59
2022-11-16T06:54:28.367Z,9.61
2022-11-16T06:55:28.277Z,9.59
2022-11-16T06:56:29.208Z,9.58
2022-11-16T06:57:28.376Z,9.59
2022-11-16T06:58:28.264Z,9.59
2022-11-16T06:59:28.467Z,9.58
2022-11-16T07:00:28.346Z,9.59
2022-11-16T07:01:28.298Z,9.61
2022-11-16T07:02:28.190Z,9.61
2022-11-16T07:03:28.222Z,9.62
2022-11-16T07:04:28.402Z,9.65
2022-11-16T07:05:28.259Z,9.65
2022-11-16T07:06:28.134Z,9.66
2022-11-16T07:07:28.144Z,9.68
2022-11-16T07:08:28.119Z,9.69
2022-11-16T07:09:28.333Z,9.68
2022-11-16T07:10:28.419Z,9.68
2022-11-16T07:11:28.079Z,9.68
2022-11-16T07:12:28.060Z,9.69
2022-11-16T07:13:28.050Z,9.69
2022-11-16T07:14:28.274Z,9.69
2022-11-16T07:15:28.020Z,9.68
2022-11-16T07:16:35.074Z,9.66
2022-11-16T07:17:27.998Z,9.68
2022-11-16T07:18:27.987Z,9.69
2022-11-16T07:19:28.212Z,9.69
2022-11-16T07:20:27.971Z,9.72
2022-11-16T07:21:27.981Z,9.68
2022-11-16T07:22:27.955Z,9.68
2022-11-16T07:23:27.931Z,9.69
2022-11-16T07:24:28.142Z,9.69
2022-11-16T07:25:27.914Z,9.72
2022-11-16T07:26:27.900Z,9.73
2022-11-16T07:27:27.872Z,9.73
2022-11-16T07:28:27.873Z,9.74
2022-11-16T07:29:28.076Z,9.74
2022-11-16T07:30:27.862Z,9.77
2022-11-16T07:31:27.846Z,9.79
2022-11-16T07:32:27.816Z,9.80
2022-11-16T07:33:27.811Z,9.77
2022-11-16T07:34:28.016Z,9.80
2022-11-16T07:35:27.775Z,9.82
2022-11-16T07:36:27.829Z,9.82
2022-11-16T07:37:27.784Z,9.80
2022-11-16T07:38:27.724Z,9.83
2022-11-16T07:39:27.945Z,9.82
2022-11-16T07:40:27.711Z,9.79
2022-11-16T07:41:27.684Z,9.80
2022-11-16T07:42:27.677Z,9.80
2022-11-16T07:43:27.670Z,9.83
2022-11-16T07:44:27.878Z,9.84
2022-11-16T07:45:27.630Z,9.87
2022-11-16T07:46:45.885Z,9.89
2022-11-16T07:47:28.614Z,9.91
2022-11-16T07:48:27.599Z,9.92
2022-11-16T07:49:27.817Z,9.95
2022-11-16T07:50:27.567Z,9.99
2022-11-16T07:51:27.549Z,10.05
2022-11-16T07:52:27.549Z,10.12
2022-11-16T07:53:27.531Z,10.17
2022-11-16T07:54:27.797Z,10.23
2022-11-16T07:55:27.507Z,10.26
2022-11-16T07:56:27.507Z,10.30
2022-11-16T07:57:27.474Z,10.34
2022-11-16T07:58:27.479Z,10.35
2022-11-16T07:59:27.704Z,10.37
2022-11-16T08:00:27.433Z,10.41
2022-11-16T08:01:27.514Z,10.41
2022-11-16T08:02:27.422Z,10.42
2022-11-16T08:03:27.392Z,10.42
2022-11-16T08:04:27.620Z,10.46
2022-11-16T08:05:27.374Z,10.46
2022-11-16T08:06:27.363Z,10.48
2022-11-16T08:07:27.387Z,10.48
2022-11-16T08:08:27.339Z,10.49
2022-11-16T08:09:27.575Z,10.49
2022-11-16T08:10:27.336Z,10.53
2022-11-16T08:11:27.290Z,10.53
2022-11-16T08:12:27.302Z,10.51
2022-11-16T08:13:27.267Z,10.51
2022-11-16T08:14:27.523Z,10.51
2022-11-16T08:15:27.244Z,10.49
2022-11-16T08:16:27.226Z,10.51
2022-11-16T08:17:27.234Z,10.46
2022-11-16T08:18:27.215Z,10.46
2022-11-16T08:19:27.456Z,10.44
2022-11-16T08:20:27.198Z,10.46
2022-11-16T08:21:27.174Z,10.44
2022-11-16T08:22:27.153Z,10.42
2022-11-16T08:23:27.154Z,10.41
2022-11-16T08:24:27.376Z,10.41
2022-11-16T08:25:27.156Z,10.41
2022-11-16T08:26:27.144Z,10.40
2022-11-16T08:27:27.110Z,10.40
2022-11-16T08:28:27.083Z,10.38
2022-11-16T08:29:27.302Z,10.38
2022-11-16T08:30:27.121Z,10.38
2022-11-16T08:31:27.038Z,10.38
2022-11-16T08:32:27.039Z,10.37
2022-11-16T08:33:27.029Z,10.38
2022-11-16T08:34:27.068Z,10.37
2022-11-16T08:35:26.999Z,10.35
2022-11-16T08:36:26.989Z,10.34
2022-11-16T08:37:26.967Z,10.38
2022-11-16T08:38:26.978Z,10.41
2022-11-16T08:39:27.004Z,10.48
2022-11-16T08:40:26.984Z,10.53
2022-11-16T08:41:26.924Z,10.54
2022-11-16T08:42:26.934Z,10.53
2022-11-16T08:43:26.901Z,10.54
2022-11-16T08:44:27.140Z,10.57
2022-11-16T08:45:27.005Z,10.60
2022-11-16T08:46:26.851Z,10.63
2022-11-16T08:47:26.843Z,10.64
2022-11-16T08:48:26.833Z,10.67
2022-11-16T08:49:27.062Z,10.68
2022-11-16T08:50:26.797Z,10.74
2022-11-16T08:51:26.801Z,10.76
2022-11-16T08:52:26.775Z,10.76
2022-11-16T08:53:26.775Z,10.76
2022-11-16T08:54:26.991Z,10.76
2022-11-16T08:55:26.782Z,10.78
2022-11-16T08:56:26.719Z,10.82
2022-11-16T08:57:26.715Z,10.86
2022-11-16T08:58:26.725Z,10.90
2022-11-16T08:59:26.948Z,10.94
2022-11-16T09:00:26.694Z,10.92
2022-11-16T09:01:26.777Z,10.90
2022-11-16T09:02:26.675Z,10.87
2022-11-16T09:03:26.634Z,10.92
2022-11-16T09:04:26.914Z,10.96
2022-11-16T09:05:26.613Z,11.00
2022-11-16T09:06:26.591Z,11.04
2022-11-16T09:07:26.663Z,11.04
2022-11-16T09:08:26.579Z,11.08
2022-11-16T09:09:26.790Z,11.12
2022-11-16T09:10:26.542Z,11.17
2022-11-16T09:11:26.531Z,11.19
2022-11-16T09:12:26.665Z,11.26
2022-11-16T09:13:26.507Z,11.30
2022-11-16T09:14:26.738Z,11.33
2022-11-16T09:15:26.479Z,11.41
2022-11-16T09:16:26.477Z,11.45
2022-11-16T09:17:26.638Z,11.48
2022-11-16T09:18:26.439Z,11.54
2022-11-16T09:19:26.697Z,11.54
2022-11-16T09:20:26.428Z,11.60
2022-11-16T09:21:26.404Z,11.59
2022-11-16T09:22:26.487Z,11.59
2022-11-16T09:23:26.373Z,11.62
2022-11-16T09:24:26.596Z,11.65
2022-11-16T09:25:26.353Z,11.57
2022-11-16T09:26:26.381Z,11.54
2022-11-16T09:27:26.390Z,11.50
2022-11-16T09:28:26.310Z,11.47
2022-11-16T09:29:26.583Z,11.43
2022-11-16T09:30:26.279Z,11.41
2022-11-16T09:31:26.340Z,11.37
2022-11-16T09:32:26.515Z,11.35
2022-11-16T09:33:26.255Z,11.32
2022-11-16T09:34:26.478Z,11.30
2022-11-16T09:35:26.316Z,11.27
2022-11-16T09:36:26.209Z,11.26
2022-11-16T09:37:26.197Z,11.25
2022-11-16T09:38:40.264Z,11.23
2022-11-16T09:39:31.014Z,11.22
2022-11-16T09:40:26.147Z,11.23
2022-11-16T09:41:26.144Z,11.26
2022-11-16T09:42:26.225Z,11.30
2022-11-16T09:43:26.115Z,11.30
2022-11-16T09:44:26.401Z,11.30
2022-11-16T09:45:26.094Z,11.33
2022-11-16T09:46:26.072Z,11.37
2022-11-16T09:47:26.062Z,11.43
2022-11-16T09:48:26.047Z,11.45
2022-11-16T09:49:26.280Z,11.48
2022-11-16T09:50:26.028Z,11.50
2022-11-16T09:51:26.011Z,11.50
2022-11-16T09:52:26.000Z,11.51
2022-11-16T09:53:25.987Z,11.50
2022-11-16T09:54:26.208Z,11.52
2022-11-16T09:55:25.958Z,11.52
2022-11-16T09:56:25.945Z,11.57
2022-11-16T09:57:25.936Z,11.59
2022-11-16T09:58:25.918Z,11.55
2022-11-16T09:59:26.146Z,11.54
2022-11-16T10:00:25.938Z,11.54
2022-11-16T10:01:26.072Z,11.59
2022-11-16T10:02:26.126Z,11.63
2022-11-16T10:03:25.863Z,11.72
2022-11-16T10:04:26.172Z,11.80
2022-11-16T10:05:25.835Z,11.83
2022-11-16T10:06:25.813Z,11.87
2022-11-16T10:07:25.857Z,11.95
2022-11-16T10:08:25.841Z,12.02
2022-11-16T10:09:25.798Z,12.02
2022-11-16T10:10:26.015Z,12.00
2022-11-16T10:11:25.792Z,12.00
2022-11-16T10:12:25.749Z,11.99
2022-11-16T10:13:25.728Z,11.99
2022-11-16T10:14:25.722Z,11.97
2022-11-16T10:15:26.009Z,11.97
2022-11-16T10:16:25.680Z,11.97
2022-11-16T10:17:25.698Z,11.95
2022-11-16T10:18:25.668Z,11.91
2022-11-16T10:19:25.690Z,11.91
2022-11-16T10:20:30.393Z,11.88
2022-11-16T10:21:26.632Z,11.90
2022-11-16T10:22:25.725Z,11.91
2022-11-16T10:23:25.597Z,11.88
2022-11-16T10:24:25.598Z,11.86
2022-11-16T10:25:25.811Z,11.84
2022-11-16T10:26:25.566Z,11.81
2022-11-16T10:27:25.546Z,11.81
2022-11-16T10:28:25.531Z,11.81
2022-11-16T10:29:25.543Z,11.81
2022-11-16T10:30:25.742Z,11.80
2022-11-16T10:31:25.493Z,11.80
2022-11-16T10:32:25.483Z,11.83
2022-11-16T10:33:25.467Z,11.84
2022-11-16T10:34:25.451Z,11.86
2022-11-16T10:35:25.677Z,11.84
2022-11-16T10:36:25.435Z,11.84
2022-11-16T10:37:25.420Z,11.84
2022-11-16T10:38:25.406Z,11.86
2022-11-16T10:39:25.396Z,11.86
2022-11-16T10:40:25.622Z,11.88
2022-11-16T10:41:25.419Z,11.88
2022-11-16T10:42:25.437Z,11.94
2022-11-16T10:43:25.337Z,11.94
2022-11-16T10:44:25.334Z,11.94
2022-11-16T10:45:25.556Z,11.95
2022-11-16T10:46:25.342Z,11.94
2022-11-16T10:47:29.388Z,11.95
2022-11-16T10:48:26.275Z,11.97
2022-11-16T10:49:25.262Z,11.99
2022-11-16T10:50:25.530Z,12.00
2022-11-16T10:51:25.243Z,12.02
2022-11-16T10:52:25.237Z,12.04
2022-11-16T10:53:25.255Z,12.03
2022-11-16T10:54:25.236Z,12.06
2022-11-16T10:55:25.422Z,12.03
2022-11-16T10:56:25.174Z,12.06
2022-11-16T10:57:25.167Z,12.03
2022-11-16T10:58:25.143Z,12.04
2022-11-16T10:59:25.129Z,12.03
2022-11-16T11:00:25.449Z,12.03
2022-11-16T11:01:25.125Z,11.99
2022-11-16T11:02:25.089Z,11.95
2022-11-16T11:03:25.152Z,11.97
2022-11-16T11:04:26.103Z,11.91
2022-11-16T11:05:25.057Z,11.90
2022-11-16T11:06:25.308Z,11.90
2022-11-16T11:07:25.186Z,11.88
2022-11-16T11:08:25.017Z,11.86
2022-11-16T11:09:25.004Z,11.84
2022-11-16T11:10:24.987Z,11.83
2022-11-16T11:11:24.975Z,11.83
2022-11-16T11:12:25.155Z,11.81
2022-11-16T11:13:24.965Z,11.83
2022-11-16T11:14:24.939Z,11.83
2022-11-16T11:15:26.511Z,11.83
2022-11-16T11:16:24.950Z,11.81
2022-11-16T11:17:25.043Z,11.78
2022-11-16T11:18:25.069Z,11.78
2022-11-16T11:19:24.915Z,11.80
2022-11-16T11:20:24.851Z,11.78
2022-11-16T11:21:24.892Z,11.80
2022-11-16T11:22:24.846Z,11.80
2022-11-16T11:23:25.008Z,11.81
2022-11-16T11:25:25.801Z,11.84
2022-11-16T11:26:24.788Z,11.86
2022-11-16T11:27:24.818Z,11.88
2022-11-16T11:28:24.946Z,11.88
2022-11-16T11:29:24.750Z,11.90
2022-11-16T11:30:24.735Z,11.91
2022-11-16T11:31:24.717Z,11.91
2022-11-16T11:32:24.871Z,11.94
2022-11-16T11:33:24.761Z,11.95
2022-11-16T11:34:24.690Z,11.94
2022-11-16T11:35:24.671Z,11.94
2022-11-16T11:36:24.653Z,11.91
2022-11-16T11:37:24.683Z,11.99
2022-11-16T11:38:24.631Z,12.00
2022-11-16T11:39:24.899Z,12.02
2022-11-16T11:40:24.601Z,12.06
2022-11-16T11:41:24.591Z,12.10
2022-11-16T11:42:24.571Z,12.18
2022-11-16T11:43:24.560Z,12.24
2022-11-16T11:44:24.738Z,12.25
2022-11-16T11:45:24.539Z,12.27
2022-11-16T11:46:30.653Z,12.28
2022-11-16T11:48:25.503Z,12.29
2022-11-16T11:49:27.940Z,12.31
2022-11-16T11:50:25.469Z,12.36
2022-11-16T11:51:24.468Z,12.37
2022-11-16T11:52:24.446Z,12.32
2022-11-16T11:53:24.437Z,12.32
2022-11-16T11:54:24.605Z,12.31
2022-11-16T11:55:24.406Z,12.31
2022-11-16T11:56:24.395Z,12.32
2022-11-16T11:57:24.430Z,12.35
2022-11-16T11:58:24.385Z,12.36
2022-11-16T11:59:24.573Z,12.35
2022-11-16T12:00:24.347Z,12.29
2022-11-16T12:01:25.754Z,12.27
2022-11-16T12:02:24.321Z,12.32
2022-11-16T12:03:24.357Z,12.37
2022-11-16T12:04:24.290Z,12.36
2022-11-16T12:05:24.468Z,12.39
2022-11-16T12:06:24.272Z,12.45
2022-11-16T12:07:24.416Z,12.45
2022-11-16T12:08:24.243Z,12.47
2022-11-16T12:09:24.227Z,12.53
2022-11-16T12:10:24.412Z,12.49
2022-11-16T12:11:24.206Z,12.46
2022-11-16T12:12:24.206Z,12.53
2022-11-16T12:13:24.186Z,12.58
2022-11-16T12:14:24.157Z,12.57
2022-11-16T12:15:24.153Z,12.58
2022-11-16T12:16:24.315Z,12.58
2022-11-16T12:17:24.126Z,12.60
2022-11-16T12:18:24.114Z,12.61
2022-11-16T12:19:24.112Z,12.62
2022-11-16T12:20:24.089Z,12.61
2022-11-16T12:21:24.253Z,12.64
2022-11-16T12:22:24.063Z,12.67
2022-11-16T12:23:24.056Z,12.70
2022-11-16T12:24:24.032Z,12.73
2022-11-16T12:25:24.031Z,12.75
2022-11-16T12:26:24.188Z,12.78
2022-11-16T12:27:24.073Z,12.80
2022-11-16T12:28:23.989Z,12.82
2022-11-16T12:29:23.985Z,12.85
2022-11-16T12:30:23.960Z,12.86
2022-11-16T12:31:24.135Z,12.93
2022-11-16T12:32:23.945Z,12.94
2022-11-16T12:33:23.928Z,12.95
2022-11-16T12:34:23.915Z,13.00
2022-11-16T12:35:23.902Z,13.01
2022-11-16T12:36:24.177Z,13.01
2022-11-16T12:37:23.886Z,13.04
2022-11-16T12:38:26.369Z,13.04
2022-11-16T12:39:23.844Z,13.03
2022-11-16T12:40:23.833Z,13.04
2022-11-16T12:41:23.826Z,13.08
2022-11-16T12:42:23.990Z,13.11
2022-11-16T12:43:23.801Z,13.12
2022-11-16T12:44:23.782Z,13.09
2022-11-16T12:45:29.008Z,13.08
2022-11-16T12:46:24.760Z,13.05
2022-11-16T12:47:24.057Z,13.08
2022-11-16T12:48:23.739Z,13.11
2022-11-16T12:49:23.719Z,13.08
2022-11-16T12:50:23.707Z,13.04
2022-11-16T12:51:28.799Z,13.03
2022-11-16T12:52:24.911Z,13.12
2022-11-16T12:53:23.668Z,13.11
2022-11-16T12:54:23.658Z,13.12
2022-11-16T12:55:26.377Z,13.18
2022-11-16T12:56:23.636Z,13.19
2022-11-16T12:57:23.624Z,13.22
2022-11-16T12:58:23.787Z,13.23
2022-11-16T12:59:23.596Z,13.20
2022-11-16T13:00:23.581Z,13.19
2022-11-16T13:01:23.609Z,13.13
2022-11-16T13:02:23.552Z,13.15
2022-11-16T13:03:23.737Z,13.15
2022-11-16T13:04:23.533Z,13.18
2022-11-16T13:05:23.514Z,13.19
2022-11-16T13:06:23.502Z,13.22
2022-11-16T13:07:23.523Z,13.20
2022-11-16T13:08:23.479Z,13.18